createdAt,value
2023-03-11T00:00:54.920Z,95662.38
2023-03-11T00:03:28.454Z,95655.88
2023-03-11T00:05:58.034Z,95649.85
2023-03-11T00:08:25.257Z,95644.91
2023-03-11T00:10:55.292Z,95642.77
2023-03-11T00:13:27.446Z,95635.50
2023-03-11T00:15:56.170Z,95636.43
2023-03-11T00:18:26.409Z,95632.27
2023-03-11T00:20:55.271Z,95631.44
2023-03-11T00:23:23.553Z,95632.67
2023-03-11T00:25:50.835Z,95624.77
2023-03-11T00:28:18.151Z,95619.49
2023-03-11T00:30:46.566Z,95617.95
2023-03-11T00:33:15.337Z,95615.29
2023-03-11T00:35:43.359Z,95615.12
2023-03-11T00:38:18.261Z,95613.50
2023-03-11T00:40:46.931Z,95615.77
2023-03-11T00:43:14.723Z,95613.15
2023-03-11T00:45:41.689Z,95615.15
2023-03-11T00:48:09.196Z,95615.40
2023-03-11T00:50:36.966Z,95613.80
2023-03-11T00:53:05.235Z,95613.63
2023-03-11T00:55:34.604Z,95610.23
2023-03-11T00:58:05.742Z,95604.33
2023-03-11T01:00:48.591Z,95604.73
2023-03-11T01:03:15.510Z,95604.45
2023-03-11T01:05:42.609Z,95604.33
2023-03-11T01:08:09.794Z,95596.73
2023-03-11T01:10:37.977Z,95584.65
2023-03-11T01:13:05.648Z,95580.70
2023-03-11T01:15:36.085Z,95573.95
2023-03-11T01:18:04.824Z,95573.29
2023-03-11T01:20:33.920Z,95565.73
2023-03-11T01:23:01.050Z,95560.08
2023-03-11T01:25:28.970Z,95557.14
2023-03-11T01:27:58.888Z,95552.60
2023-03-11T01:30:27.115Z,95550.48
2023-03-11T01:32:56.351Z,95547.11
2023-03-11T01:35:28.402Z,95543.35
2023-03-11T01:37:59.153Z,95525.65
2023-03-11T01:40:31.627Z,95516.41
2023-03-11T01:43:02.395Z,95520.30
2023-03-11T01:45:51.860Z,95522.40
2023-03-11T01:48:23.014Z,95520.00
2023-03-11T01:50:50.421Z,95519.64
2023-03-11T01:53:17.991Z,95524.16
2023-03-11T01:55:47.516Z,95525.15
2023-03-11T01:58:19.653Z,95526.21
2023-03-11T02:00:46.979Z,95526.66
2023-03-11T02:03:21.007Z,95516.85
2023-03-11T02:05:49.652Z,95513.47
2023-03-11T02:08:16.652Z,95507.66
2023-03-11T02:10:43.964Z,95504.30
2023-03-11T02:13:11.871Z,95506.42
2023-03-11T02:15:40.121Z,95509.81
2023-03-11T02:18:08.373Z,95506.61
2023-03-11T02:20:42.505Z,95501.75
2023-03-11T02:23:14.492Z,95491.36
2023-03-11T02:25:59.706Z,95484.34
2023-03-11T02:28:27.942Z,95478.80
2023-03-11T02:30:56.430Z,95481.73
2023-03-11T02:33:28.864Z,95481.92
2023-03-11T02:35:56.927Z,95478.05
2023-03-11T02:38:24.190Z,95479.64
2023-03-11T02:40:59.928Z,95484.36
2023-03-11T02:43:36.922Z,95488.27
2023-03-11T02:46:06.123Z,95495.05
2023-03-11T02:48:34.924Z,95494.29
2023-03-11T02:51:02.306Z,95490.90
2023-03-11T02:53:35.106Z,95486.23
2023-03-11T02:56:02.247Z,95489.30
2023-03-11T02:58:29.203Z,95489.96
2023-03-11T03:00:56.194Z,95484.73
2023-03-11T03:03:23.713Z,95481.23
2023-03-11T03:05:50.703Z,95478.17
2023-03-11T03:08:17.676Z,95473.02
2023-03-11T03:10:44.637Z,95472.71
2023-03-11T03:13:11.886Z,95461.98
2023-03-11T03:15:38.824Z,95458.55
2023-03-11T03:18:06.300Z,95462.14
2023-03-11T03:20:33.240Z,95462.85
2023-03-11T03:23:01.573Z,95460.65
2023-03-11T03:25:30.942Z,95457.17
2023-03-11T03:28:00.059Z,95454.69
2023-03-11T03:30:28.866Z,95449.08
2023-03-11T03:32:55.962Z,95444.46
2023-03-11T03:35:22.883Z,95443.50
2023-03-11T03:38:10.904Z,95440.48
2023-03-11T03:40:38.805Z,95435.48
2023-03-11T03:43:06.532Z,95425.68
2023-03-11T03:45:34.550Z,95414.68
2023-03-11T03:48:01.968Z,95412.48
2023-03-11T03:50:30.894Z,95415.70
2023-03-11T03:52:57.945Z,95420.29
2023-03-11T03:55:25.266Z,95417.55
2023-03-11T03:57:52.706Z,95417.72
2023-03-11T04:00:21.103Z,95415.61
2023-03-11T04:02:49.748Z,95409.45
2023-03-11T04:05:26.262Z,95393.54
2023-03-11T04:07:54.424Z,95395.34
2023-03-11T04:10:21.850Z,95393.21
2023-03-11T04:12:49.514Z,95386.02
2023-03-11T04:15:16.753Z,95385.08
2023-03-11T04:17:44.144Z,95384.30
2023-03-11T04:20:12.371Z,95391.52
2023-03-11T04:22:39.637Z,95393.73
2023-03-11T04:25:07.299Z,95396.39
2023-03-11T04:27:34.384Z,95395.92
2023-03-11T04:30:02.236Z,95396.30
2023-03-11T04:32:29.954Z,95400.54
2023-03-11T04:34:57.427Z,95406.67
2023-03-11T04:37:28.177Z,95404.83
2023-03-11T04:39:55.319Z,95409.14
2023-03-11T04:42:22.252Z,95406.98
2023-03-11T04:44:49.596Z,95406.89
2023-03-11T04:47:16.629Z,95409.98
2023-03-11T04:49:44.107Z,95411.11
2023-03-11T04:52:11.604Z,95414.83
2023-03-11T04:54:38.720Z,95419.08
2023-03-11T04:57:06.295Z,95420.05
2023-03-11T04:59:34.189Z,95426.44
2023-03-11T05:02:01.563Z,95434.89
2023-03-11T05:04:29.426Z,95449.25
2023-03-11T05:06:56.642Z,95456.53
2023-03-11T05:09:24.714Z,95456.75
2023-03-11T05:11:51.652Z,95466.04
2023-03-11T05:14:19.133Z,95476.70
2023-03-11T05:16:46.400Z,95483.54
2023-03-11T05:19:31.793Z,95490.88
2023-03-11T05:22:02.049Z,95490.86
2023-03-11T05:24:30.391Z,95489.55
2023-03-11T05:26:58.048Z,95490.67
2023-03-11T05:29:25.868Z,95487.88
2023-03-11T05:31:53.822Z,95492.82
2023-03-11T05:34:20.996Z,95497.42
2023-03-11T05:36:48.209Z,95506.23
2023-03-11T05:39:15.998Z,95516.96
2023-03-11T05:41:43.288Z,95519.83
2023-03-11T05:44:10.431Z,95529.14
2023-03-11T05:46:37.894Z,95532.61
2023-03-11T05:49:05.803Z,95532.27
2023-03-11T05:51:32.808Z,95533.14
2023-03-11T05:54:01.229Z,95537.70
2023-03-11T05:56:36.997Z,95532.40
2023-03-11T05:59:04.288Z,95531.90
2023-03-11T06:01:34.034Z,95537.93
2023-03-11T06:04:01.492Z,95535.41
2023-03-11T06:06:29.179Z,95536.13
2023-03-11T06:08:57.006Z,95536.98
2023-03-11T06:11:25.327Z,95535.02
2023-03-11T06:13:57.457Z,95533.59
2023-03-11T06:16:26.259Z,95538.32
2023-03-11T06:18:54.212Z,95540.85
2023-03-11T06:21:23.784Z,95539.55
2023-03-11T06:23:50.879Z,95536.04
2023-03-11T06:26:20.409Z,95536.27
2023-03-11T06:28:48.265Z,95539.92
2023-03-11T06:31:19.225Z,95533.90
2023-03-11T06:33:47.511Z,95537.47
2023-03-11T06:36:16.366Z,95537.30
2023-03-11T06:38:43.748Z,95542.38
2023-03-11T06:41:10.879Z,95547.00
2023-03-11T06:43:38.414Z,95545.23
2023-03-11T06:46:14.803Z,95538.45
2023-03-11T06:48:42.275Z,95534.98
2023-03-11T06:51:09.824Z,95536.40
2023-03-11T06:53:36.950Z,95534.79
2023-03-11T06:56:12.330Z,95531.48
2023-03-11T06:58:45.196Z,95532.65
2023-03-11T07:01:18.137Z,95533.88
2023-03-11T07:03:47.202Z,95539.30
2023-03-11T07:06:17.240Z,95537.40
2023-03-11T07:08:47.530Z,95531.27
2023-03-11T07:11:33.151Z,95530.66
2023-03-11T07:14:06.070Z,95532.89
2023-03-11T07:16:34.839Z,95533.80
2023-03-11T07:19:06.775Z,95535.04
2023-03-11T07:21:34.468Z,95535.91
2023-03-11T07:24:03.400Z,95531.25
2023-03-11T07:26:32.396Z,95530.63
2023-03-11T07:28:59.704Z,95535.11
2023-03-11T07:31:33.369Z,95545.51
2023-03-11T07:34:04.762Z,95548.52
2023-03-11T07:36:31.947Z,95552.11
2023-03-11T07:39:04.373Z,95558.27
2023-03-11T07:41:32.279Z,95560.52
2023-03-11T07:44:01.027Z,95561.07
2023-03-11T07:46:29.492Z,95568.16
2023-03-11T07:48:57.193Z,95563.64
2023-03-11T07:51:29.090Z,95555.95
2023-03-11T07:53:57.917Z,95550.70
2023-03-11T07:56:27.687Z,95547.14
2023-03-11T07:58:55.246Z,95551.78
2023-03-11T08:01:24.840Z,95551.31
2023-03-11T08:03:57.178Z,95549.61
2023-03-11T08:06:28.706Z,95544.05
2023-03-11T08:08:55.876Z,95541.84
2023-03-11T08:11:22.966Z,95539.46
2023-03-11T08:13:51.634Z,95535.86
2023-03-11T08:16:21.094Z,95531.61
2023-03-11T08:18:50.321Z,95537.58
2023-03-11T08:21:22.080Z,95532.79
2023-03-11T08:23:50.358Z,95533.80
2023-03-11T08:26:20.196Z,95532.45
2023-03-11T08:28:48.943Z,95534.91
2023-03-11T08:31:19.388Z,95534.52
2023-03-11T08:33:49.442Z,95534.83
2023-03-11T08:36:16.837Z,95534.55
2023-03-11T08:38:44.753Z,95542.56
2023-03-11T08:41:12.015Z,95557.01
2023-03-11T08:43:39.426Z,95569.96
2023-03-11T08:46:06.832Z,95566.70
2023-03-11T08:48:35.754Z,95580.58
2023-03-11T08:51:09.340Z,95585.72
2023-03-11T08:53:37.231Z,95595.27
2023-03-11T08:56:04.908Z,95604.97
2023-03-11T08:58:32.032Z,95600.52
2023-03-11T09:00:59.188Z,95588.94
2023-03-11T09:03:26.426Z,95605.19
2023-03-11T09:05:57.904Z,95613.27
2023-03-11T09:08:25.583Z,95614.30
2023-03-11T09:10:52.511Z,95613.00
2023-03-11T09:13:19.724Z,95606.48
2023-03-11T09:15:49.114Z,95610.91
2023-03-11T09:18:17.603Z,95609.86
2023-03-11T09:20:45.723Z,95621.30
2023-03-11T09:23:15.281Z,95623.34
2023-03-11T09:25:42.749Z,95617.55
2023-03-11T09:28:09.795Z,95621.88
2023-03-11T09:30:36.782Z,95624.54
2023-03-11T09:33:03.789Z,95625.70
2023-03-11T09:35:31.688Z,95637.95
2023-03-11T09:37:58.693Z,95635.67
2023-03-11T09:40:32.393Z,95633.85
2023-03-11T09:42:59.217Z,95633.03
2023-03-11T09:45:32.890Z,95631.66
2023-03-11T09:48:10.063Z,95625.73
2023-03-11T09:50:48.521Z,95625.54
2023-03-11T09:53:32.289Z,95627.96
2023-03-11T09:56:00.779Z,95625.36
2023-03-11T09:58:39.956Z,95629.41
2023-03-11T10:01:33.041Z,95634.95
2023-03-11T10:04:14.051Z,95648.42
2023-03-11T10:06:44.728Z,95650.58
2023-03-11T10:09:11.518Z,95657.33
2023-03-11T10:12:02.093Z,95650.83
2023-03-11T10:14:59.919Z,95657.07
2023-03-11T10:18:05.132Z,95663.92
2023-03-11T10:20:57.444Z,95666.51
2023-03-11T10:23:33.458Z,95667.04
2023-03-11T10:26:05.026Z,95666.92
2023-03-11T10:28:53.945Z,95665.95
2023-03-11T10:31:38.603Z,95675.22
2023-03-11T10:34:24.558Z,95667.98
2023-03-11T10:37:12.777Z,95670.10
2023-03-11T10:39:40.880Z,95676.39
2023-03-11T10:42:23.176Z,95683.59
2023-03-11T10:44:52.487Z,95680.77
2023-03-11T10:47:23.175Z,95684.34
2023-03-11T10:49:51.924Z,95698.39
2023-03-11T10:52:19.465Z,95695.84
2023-03-11T10:54:58.319Z,95707.14
2023-03-11T10:57:30.324Z,95703.16
2023-03-11T11:00:00.307Z,95696.56
2023-03-11T11:02:31.143Z,95697.16
2023-03-11T11:05:22.660Z,95696.37
2023-03-11T11:07:55.004Z,95684.30
2023-03-11T11:10:24.681Z,95675.84
2023-03-11T11:13:03.415Z,95678.04
2023-03-11T11:15:36.519Z,95668.14
2023-03-11T11:18:06.991Z,95663.89
2023-03-11T11:20:34.870Z,95658.55
2023-03-11T11:23:03.622Z,95670.52
2023-03-11T11:25:33.102Z,95673.47
2023-03-11T11:28:16.772Z,95676.39
2023-03-11T11:31:04.122Z,95680.80
2023-03-11T11:33:49.244Z,95685.67
2023-03-11T11:36:18.347Z,95695.08
2023-03-11T11:38:45.455Z,95690.23
2023-03-11T11:41:17.918Z,95687.58
2023-03-11T11:43:56.114Z,95681.77
2023-03-11T11:46:44.189Z,95688.42
2023-03-11T11:49:25.322Z,95694.52
2023-03-11T11:52:04.808Z,95701.60
2023-03-11T11:54:46.715Z,95709.34
2023-03-11T11:57:16.208Z,95709.59
2023-03-11T11:59:44.375Z,95718.27
2023-03-11T12:02:36.181Z,95722.48
2023-03-11T12:05:13.430Z,95726.34
2023-03-11T12:08:02.166Z,95716.11
2023-03-11T12:10:39.128Z,95708.73
2023-03-11T12:13:21.318Z,95706.56
2023-03-11T12:16:02.399Z,95706.75
2023-03-11T12:19:04.100Z,95699.54
2023-03-11T12:21:58.925Z,95693.30
2023-03-11T12:24:43.103Z,95692.34
2023-03-11T12:27:25.672Z,95679.77
2023-03-11T12:29:57.444Z,95673.95
2023-03-11T12:32:38.082Z,95664.02
2023-03-11T12:35:27.153Z,95661.52
2023-03-11T12:38:00.771Z,95666.00
2023-03-11T12:40:49.184Z,95666.63
2023-03-11T12:43:42.446Z,95673.52
2023-03-11T12:46:12.887Z,95684.19
2023-03-11T12:48:46.000Z,95674.16
2023-03-11T12:51:36.924Z,95683.40
2023-03-11T12:54:32.679Z,95700.17
2023-03-11T12:57:19.697Z,95720.98
2023-03-11T13:00:07.587Z,95731.17
2023-03-11T13:03:16.260Z,95735.27
2023-03-11T13:06:34.482Z,95737.84
2023-03-11T13:09:01.734Z,95740.92
2023-03-11T13:11:31.613Z,95754.95
2023-03-11T13:14:38.249Z,95760.64
2023-03-11T13:17:32.025Z,95771.50
2023-03-11T13:19:59.363Z,95765.63
2023-03-11T13:22:43.212Z,95772.96
2023-03-11T13:25:38.532Z,95787.59
2023-03-11T13:28:36.569Z,95796.25
2023-03-11T13:31:25.543Z,95797.56
2023-03-11T13:33:54.925Z,95803.48
2023-03-11T13:37:08.448Z,95806.04
2023-03-11T13:39:38.598Z,95806.39
2023-03-11T13:42:36.108Z,95808.48
2023-03-11T13:45:07.530Z,95794.98
2023-03-11T13:47:36.457Z,95810.65
2023-03-11T13:50:17.666Z,95829.53
2023-03-11T13:52:55.175Z,95833.27
2023-03-11T13:55:33.926Z,95838.83
2023-03-11T13:58:03.373Z,95845.47
2023-03-11T14:00:31.807Z,95866.05
2023-03-11T14:03:02.750Z,95866.38
2023-03-11T14:05:32.822Z,95870.94
2023-03-11T14:08:26.796Z,95879.52
2023-03-11T14:11:03.233Z,95892.23
2023-03-11T14:13:42.770Z,95898.09
2023-03-11T14:16:21.235Z,95902.88
2023-03-11T14:19:28.300Z,95906.30
2023-03-11T14:21:55.901Z,95911.78
2023-03-11T14:24:29.527Z,95922.23
2023-03-11T14:27:00.637Z,95918.23
2023-03-11T14:29:36.512Z,95923.04
2023-03-11T14:32:36.502Z,95920.96
2023-03-11T14:35:20.010Z,95923.46
2023-03-11T14:37:47.052Z,95925.05
2023-03-11T14:40:25.355Z,95936.21
2023-03-11T14:42:55.341Z,95943.70
2023-03-11T14:45:25.644Z,95945.56
2023-03-11T14:48:05.530Z,95948.04
2023-03-11T14:50:38.190Z,95944.64
2023-03-11T14:53:17.342Z,95943.19
2023-03-11T14:55:50.523Z,95946.25
2023-03-11T14:58:36.739Z,95936.30
2023-03-11T15:01:15.885Z,95940.94
2023-03-11T15:03:55.970Z,95947.31
2023-03-11T15:06:29.129Z,95949.05
2023-03-11T15:09:01.299Z,95942.73
2023-03-11T15:11:28.432Z,95949.31
2023-03-11T15:14:17.570Z,95949.06
2023-03-11T15:16:44.791Z,95945.00
2023-03-11T15:19:27.760Z,95942.94
2023-03-11T15:22:05.965Z,95942.94
2023-03-11T15:24:33.581Z,95944.88
2023-03-11T15:27:20.969Z,95951.59
2023-03-11T15:29:52.655Z,95957.59
2023-03-11T15:32:28.830Z,95963.23
2023-03-11T15:35:11.902Z,95969.52
2023-03-11T15:37:41.242Z,95981.82
2023-03-11T15:40:11.689Z,95989.69
2023-03-11T15:42:39.034Z,95992.75
2023-03-11T15:45:15.156Z,95995.65
2023-03-11T15:47:43.039Z,96013.19
2023-03-11T15:50:23.556Z,96019.17
2023-03-11T15:52:56.796Z,96023.29
2023-03-11T15:55:26.321Z,96022.33
2023-03-11T15:58:01.929Z,96030.33
2023-03-11T16:00:28.953Z,96030.27
2023-03-11T16:02:56.020Z,96039.53
2023-03-11T16:05:24.421Z,96044.34
2023-03-11T16:07:51.663Z,96046.23
2023-03-11T16:10:21.729Z,96056.44
2023-03-11T16:12:48.806Z,96059.94
2023-03-11T16:15:20.569Z,96060.86
2023-03-11T16:17:50.281Z,96065.19
2023-03-11T16:20:19.461Z,96071.58
2023-03-11T16:22:48.801Z,96080.75
2023-03-11T16:25:29.452Z,96081.73
2023-03-11T16:27:57.102Z,96084.03
2023-03-11T16:30:26.539Z,96088.83
2023-03-11T16:32:53.673Z,96091.93
2023-03-11T16:35:21.218Z,96091.93
2023-03-11T16:37:48.513Z,96109.31
2023-03-11T16:40:26.056Z,96118.03
2023-03-11T16:43:14.157Z,96121.67
2023-03-11T16:45:41.169Z,96131.23
2023-03-11T16:48:09.263Z,96134.42
2023-03-11T16:50:37.669Z,96138.52
2023-03-11T16:53:04.930Z,96142.77
2023-03-11T16:55:32.309Z,96146.56
2023-03-11T16:57:59.637Z,96150.65
2023-03-11T17:00:26.861Z,96150.42
2023-03-11T17:02:53.824Z,96154.22
2023-03-11T17:05:21.052Z,96153.68
2023-03-11T17:07:48.130Z,96155.19
2023-03-11T17:10:15.249Z,96161.71
2023-03-11T17:12:42.541Z,96164.98
2023-03-11T17:15:12.360Z,96166.77
2023-03-11T17:17:39.508Z,96182.70
2023-03-11T17:20:07.735Z,96185.57
2023-03-11T17:22:36.508Z,96193.77
2023-03-11T17:25:04.070Z,96197.55
2023-03-11T17:27:34.469Z,96200.20
2023-03-11T17:30:03.418Z,96207.39
2023-03-11T17:32:30.660Z,96209.60
2023-03-11T17:34:58.064Z,96210.05
2023-03-11T17:37:28.291Z,96211.79
2023-03-11T17:39:55.760Z,96216.33
2023-03-11T17:42:23.824Z,96221.94
2023-03-11T17:44:55.251Z,96226.34
2023-03-11T17:47:25.542Z,96220.81
2023-03-11T17:49:53.760Z,96217.09
2023-03-11T17:52:20.968Z,96217.77
2023-03-11T17:54:48.243Z,96220.81
2023-03-11T17:57:15.240Z,96218.69
2023-03-11T17:59:42.159Z,96223.54
2023-03-11T18:02:12.710Z,96227.25
2023-03-11T18:04:42.902Z,96230.42
2023-03-11T18:07:12.780Z,96233.77
2023-03-11T18:09:39.889Z,96231.27
2023-03-11T18:12:07.032Z,96230.89
2023-03-11T18:14:35.455Z,96234.67
2023-03-11T18:17:02.917Z,96234.23
2023-03-11T18:19:29.995Z,96236.80
2023-03-11T18:21:57.240Z,96233.60
2023-03-11T18:24:24.310Z,96239.67
2023-03-11T18:26:51.348Z,96240.05
2023-03-11T18:29:19.037Z,96241.04
2023-03-11T18:31:46.315Z,96246.57
2023-03-11T18:34:14.325Z,96252.02
2023-03-11T18:36:41.920Z,96248.39
2023-03-11T18:39:12.046Z,96253.77
2023-03-11T18:41:40.330Z,96255.98
2023-03-11T18:44:07.702Z,96261.89
2023-03-11T18:46:35.385Z,96259.02
2023-03-11T18:49:03.454Z,96264.00
2023-03-11T18:51:32.050Z,96271.73
2023-03-11T18:53:59.852Z,96278.17
2023-03-11T18:56:27.286Z,96281.81
2023-03-11T18:58:55.461Z,96290.45
2023-03-11T19:01:22.772Z,96301.50
2023-03-11T19:03:55.728Z,96309.84
2023-03-11T19:06:24.176Z,96315.98
2023-03-11T19:08:51.481Z,96325.59
2023-03-11T19:11:20.899Z,96333.40
2023-03-11T19:13:50.633Z,96339.23
2023-03-11T19:16:20.978Z,96349.52
2023-03-11T19:18:49.631Z,96353.91
2023-03-11T19:21:17.268Z,96360.56
2023-03-11T19:23:44.995Z,96366.25
2023-03-11T19:26:12.751Z,96372.68
2023-03-11T19:28:39.713Z,96374.19
2023-03-11T19:31:06.690Z,96375.09
2023-03-11T19:33:34.075Z,96381.92
2023-03-11T19:36:03.935Z,96388.06
2023-03-11T19:38:31.144Z,96394.09
2023-03-11T19:41:07.221Z,96397.59
2023-03-11T19:43:35.270Z,96406.02
2023-03-11T19:46:04.196Z,96411.52
2023-03-11T19:48:32.061Z,96413.45
2023-03-11T19:50:59.756Z,96416.38
2023-03-11T19:53:27.483Z,96420.34
2023-03-11T19:55:56.464Z,96422.27
2023-03-11T19:58:29.864Z,96426.86
2023-03-11T20:00:59.025Z,96429.91
2023-03-11T20:03:27.001Z,96430.70
2023-03-11T20:05:56.259Z,96431.86
2023-03-11T20:08:24.688Z,96440.97
2023-03-11T20:10:52.842Z,96447.23
2023-03-11T20:13:21.621Z,96454.90
2023-03-11T20:15:49.285Z,96460.23
2023-03-11T20:18:17.418Z,96465.23
2023-03-11T20:20:46.121Z,96467.67
2023-03-11T20:23:13.281Z,96472.96
2023-03-11T20:25:41.473Z,96480.74
2023-03-11T20:28:09.015Z,96476.04
2023-03-11T20:30:37.912Z,96475.86
2023-03-11T20:33:06.040Z,96488.39
2023-03-11T20:35:33.330Z,96493.99
2023-03-11T20:38:02.147Z,96493.20
2023-03-11T20:40:29.896Z,96494.89
2023-03-11T20:42:57.091Z,96498.77
2023-03-11T20:45:24.216Z,96500.08
2023-03-11T20:47:53.338Z,96508.64
2023-03-11T20:50:21.651Z,96513.96
2023-03-11T20:52:50.350Z,96515.42
2023-03-11T20:55:17.886Z,96516.43
2023-03-11T20:57:45.120Z,96514.73
2023-03-11T21:00:13.864Z,96520.59
2023-03-11T21:02:42.618Z,96532.58
2023-03-11T21:05:11.715Z,96541.55
2023-03-11T21:07:39.701Z,96543.77
2023-03-11T21:10:11.824Z,96542.33
2023-03-11T21:12:39.068Z,96546.92
2023-03-11T21:15:08.143Z,96552.58
2023-03-11T21:17:35.963Z,96555.00
2023-03-11T21:20:05.554Z,96558.04
2023-03-11T21:22:32.901Z,96563.60
2023-03-11T21:25:00.127Z,96563.67
2023-03-11T21:27:27.410Z,96572.11
2023-03-11T21:29:59.062Z,96577.02
2023-03-11T21:32:27.652Z,96579.65
2023-03-11T21:34:59.205Z,96583.66
2023-03-11T21:37:27.786Z,96588.88
2023-03-11T21:39:55.181Z,96593.94
2023-03-11T21:42:22.184Z,96590.75
2023-03-11T21:44:50.854Z,96589.66
2023-03-11T21:47:19.013Z,96600.63
2023-03-11T21:49:45.996Z,96607.23
2023-03-11T21:52:13.005Z,96615.59
2023-03-11T21:54:40.111Z,96621.54
2023-03-11T21:57:07.019Z,96626.81
2023-03-11T21:59:34.174Z,96630.52
2023-03-11T22:02:02.525Z,96632.86
2023-03-11T22:04:30.986Z,96640.33
2023-03-11T22:06:58.328Z,96645.09
2023-03-11T22:09:25.646Z,96648.41
2023-03-11T22:11:55.466Z,96653.75
2023-03-11T22:14:23.344Z,96660.70
2023-03-11T22:16:50.502Z,96662.57
2023-03-11T22:19:17.673Z,96670.46
2023-03-11T22:21:44.630Z,96680.05
2023-03-11T22:24:11.562Z,96687.30
2023-03-11T22:26:38.582Z,96685.92
2023-03-11T22:29:07.214Z,96688.10
2023-03-11T22:31:35.981Z,96691.04
2023-03-11T22:34:02.875Z,96693.63
2023-03-11T22:36:29.837Z,96695.42
2023-03-11T22:38:56.867Z,96695.73
2023-03-11T22:41:23.974Z,96701.02
2023-03-11T22:43:51.162Z,96705.05
2023-03-11T22:46:18.397Z,96704.33
2023-03-11T22:48:45.692Z,96712.70
2023-03-11T22:51:15.591Z,96716.04
2023-03-11T22:53:42.983Z,96714.92
2023-03-11T22:56:13.064Z,96711.92
2023-03-11T22:58:40.668Z,96713.52
2023-03-11T23:01:08.824Z,96712.98
2023-03-11T23:03:36.276Z,96714.70
2023-03-11T23:06:06.610Z,96715.44
2023-03-11T23:08:34.538Z,96721.69
2023-03-11T23:11:04.006Z,96722.30
2023-03-11T23:13:31.426Z,96720.98
2023-03-11T23:16:03.880Z,96715.67
2023-03-11T23:18:31.003Z,96717.77
2023-03-11T23:20:58.588Z,96717.11
2023-03-11T23:23:25.700Z,96715.82
2023-03-11T23:25:52.906Z,96716.20
2023-03-11T23:28:20.110Z,96712.59
2023-03-11T23:30:47.184Z,96715.33
2023-03-11T23:33:14.338Z,96714.33
2023-03-11T23:35:42.311Z,96719.37
2023-03-11T23:38:09.612Z,96723.14
2023-03-11T23:40:39.192Z,96722.70
2023-03-11T23:43:07.982Z,96728.19
2023-03-11T23:45:34.987Z,96727.55
2023-03-11T23:48:02.127Z,96735.77
2023-03-11T23:50:29.316Z,96739.39
2023-03-11T23:52:56.384Z,96741.95
2023-03-11T23:55:23.442Z,96745.33
2023-03-11T23:57:50.569Z,96752.34
